createdAt,value
2018-12-26T00:00:31.780Z,5.50
2018-12-26T00:02:59.925Z,4.70
2018-12-26T00:05:28.014Z,5.10
2018-12-26T00:07:56.191Z,5.00
2018-12-26T00:10:24.242Z,6.43
2018-12-26T00:12:52.298Z,5.63
2018-12-26T00:15:20.347Z,5.97
2018-12-26T00:17:48.413Z,5.97
2018-12-26T00:20:16.461Z,5.80
2018-12-26T00:22:44.520Z,6.13
2018-12-26T00:25:12.616Z,5.60
2018-12-26T00:27:40.790Z,5.60
2018-12-26T00:30:08.878Z,5.12
2018-12-26T00:32:36.930Z,5.40
2018-12-26T00:35:04.982Z,7.25
2018-12-26T00:37:33.049Z,7.60
2018-12-26T00:40:01.106Z,6.83
2018-12-26T00:42:29.146Z,4.77
2018-12-26T00:44:57.219Z,5.63
2018-12-26T00:47:25.275Z,6.58
2018-12-26T00:49:53.338Z,4.93
2018-12-26T00:52:21.394Z,6.78
2018-12-26T00:54:49.446Z,6.53
2018-12-26T00:57:17.514Z,7.47
2018-12-26T00:59:45.802Z,6.63
2018-12-26T01:02:13.947Z,6.37
2018-12-26T01:04:41.970Z,6.30
2018-12-26T01:07:10.034Z,9.70
2018-12-26T01:09:38.083Z,7.67
2018-12-26T01:12:06.146Z,10.40
2018-12-26T01:14:34.298Z,11.80
2018-12-26T01:17:02.388Z,11.85
2018-12-26T01:19:30.434Z,10.68
2018-12-26T01:21:58.500Z,10.00
2018-12-26T01:24:26.555Z,11.33
2018-12-26T01:26:54.658Z,12.43
2018-12-26T01:29:22.714Z,12.20
2018-12-26T01:31:50.770Z,10.90
2018-12-26T01:34:18.827Z,9.53
2018-12-26T01:36:46.884Z,7.45
2018-12-26T01:39:14.938Z,6.90
2018-12-26T01:41:43.039Z,7.00
2018-12-26T01:44:11.090Z,6.62
2018-12-26T01:46:39.142Z,6.00
2018-12-26T01:49:07.210Z,7.28
2018-12-26T01:51:36.061Z,7.58
2018-12-26T01:54:04.068Z,7.33
2018-12-26T01:56:32.138Z,6.53
2018-12-26T01:59:00.204Z,6.50
2018-12-26T02:01:28.872Z,5.47
2018-12-26T02:03:57.034Z,9.55
2018-12-26T02:06:25.099Z,7.58
2018-12-26T02:08:53.157Z,7.80
2018-12-26T02:11:21.276Z,7.17
2018-12-26T02:13:49.365Z,9.13
2018-12-26T02:16:17.490Z,8.25
2018-12-26T02:18:45.567Z,9.88
2018-12-26T02:21:13.683Z,10.58
2018-12-26T02:23:41.751Z,12.13
2018-12-26T02:26:09.806Z,12.50
2018-12-26T02:28:37.879Z,11.95
2018-12-26T02:31:06.322Z,12.13
2018-12-26T02:33:34.455Z,11.05
2018-12-26T02:36:02.512Z,12.13
2018-12-26T02:38:30.574Z,13.13
2018-12-26T02:40:58.626Z,12.82
2018-12-26T02:43:26.704Z,12.43
2018-12-26T02:45:54.760Z,11.55
2018-12-26T02:48:22.822Z,10.95
2018-12-26T02:50:50.875Z,11.53
2018-12-26T02:53:18.945Z,11.22
2018-12-26T02:55:46.992Z,11.97
2018-12-26T02:58:15.047Z,11.25
2018-12-26T03:00:44.147Z,10.53
2018-12-26T03:03:12.206Z,10.95
2018-12-26T03:05:40.266Z,11.20
2018-12-26T03:08:08.331Z,13.55
2018-12-26T03:10:36.384Z,13.65
2018-12-26T03:13:04.575Z,13.88
2018-12-26T03:15:32.691Z,14.45
2018-12-26T03:18:00.746Z,13.43
2018-12-26T03:20:28.830Z,12.50
2018-12-26T03:23:16.206Z,13.35
2018-12-26T06:24:22.651Z,18.25
2018-12-26T06:27:00.766Z,25.60
2018-12-26T10:12:44.610Z,12.28
2018-12-26T10:15:22.623Z,11.15
2018-12-26T13:58:35.200Z,13.38
2018-12-26T14:01:13.266Z,12.85
2018-12-26T15:26:54.007Z,15.38
2018-12-26T15:29:22.166Z,16.15
2018-12-26T15:31:50.330Z,15.05
2018-12-26T15:34:18.710Z,15.38
2018-12-26T15:36:46.821Z,15.15
2018-12-26T15:39:14.871Z,15.58
2018-12-26T15:41:42.954Z,14.60
2018-12-26T15:44:11.007Z,16.73
2018-12-26T15:46:39.054Z,16.27
2018-12-26T15:49:07.147Z,16.55
2018-12-26T15:51:36.082Z,15.43
2018-12-26T15:54:04.220Z,16.45
2018-12-26T15:56:32.299Z,15.40
2018-12-26T15:59:00.359Z,15.95
2018-12-26T16:01:28.418Z,16.02
2018-12-26T16:03:56.474Z,16.32
2018-12-26T16:06:24.548Z,16.82
2018-12-26T16:08:52.613Z,18.15
2018-12-26T16:11:20.687Z,16.70
2018-12-26T16:13:48.744Z,16.45
2018-12-26T16:16:16.812Z,16.97
2018-12-26T16:18:44.870Z,16.67
2018-12-26T16:21:12.930Z,17.42
2018-12-26T16:23:41.011Z,17.20
2018-12-26T16:26:09.091Z,16.65
2018-12-26T16:28:37.152Z,16.40
2018-12-26T16:31:05.215Z,17.92
2018-12-26T16:33:33.270Z,16.73
2018-12-26T16:36:01.343Z,18.75
2018-12-26T16:38:29.395Z,17.55
2018-12-26T16:40:57.463Z,16.97
2018-12-26T16:43:25.510Z,16.93
2018-12-26T16:45:53.615Z,16.82
2018-12-26T16:48:21.691Z,16.48
2018-12-26T16:50:49.766Z,16.52
2018-12-26T16:53:17.818Z,18.92
2018-12-26T16:55:45.870Z,18.20
2018-12-26T16:58:13.942Z,19.17
2018-12-26T17:00:42.552Z,18.20
2018-12-26T17:03:10.619Z,17.50
2018-12-26T17:05:39.187Z,16.97
2018-12-26T17:08:07.202Z,21.07
2018-12-26T17:10:35.258Z,19.20
2018-12-26T17:13:03.337Z,17.70
2018-12-26T17:15:31.382Z,17.90
2018-12-26T17:17:59.431Z,19.20
2018-12-26T17:20:27.519Z,18.35
2018-12-26T17:22:55.587Z,18.10
2018-12-26T17:25:23.662Z,18.35
2018-12-26T17:27:51.718Z,18.12
2018-12-26T17:30:19.786Z,17.35
2018-12-26T17:32:47.846Z,17.77
2018-12-26T17:35:15.902Z,18.67
2018-12-26T17:37:43.978Z,19.45
2018-12-26T17:40:12.026Z,19.30
2018-12-26T17:42:40.087Z,20.05
2018-12-26T17:45:08.162Z,19.32
2018-12-26T17:47:36.215Z,19.67
2018-12-26T17:50:22.001Z,19.82
2018-12-26T17:52:50.067Z,21.77
2018-12-26T17:55:25.401Z,22.22
2018-12-26T17:57:53.473Z,19.12
2018-12-26T18:00:21.533Z,20.60
2018-12-26T18:02:49.631Z,20.70
2018-12-26T18:05:17.678Z,20.70
2018-12-26T18:07:45.735Z,21.80
2018-12-26T18:10:13.802Z,21.93
2018-12-26T18:12:41.868Z,20.10
2018-12-26T18:15:09.982Z,19.77
2018-12-26T18:17:38.079Z,21.40
2018-12-26T18:20:06.631Z,21.30
2018-12-26T18:22:34.978Z,21.93
2018-12-26T18:25:03.127Z,19.50
2018-12-26T18:27:31.174Z,22.52
2018-12-26T18:29:59.231Z,20.48
2018-12-26T18:32:27.307Z,20.25
2018-12-26T18:34:55.367Z,20.25
2018-12-26T18:37:23.426Z,20.37
2018-12-26T18:39:51.503Z,19.75
2018-12-26T18:42:19.570Z,20.65
2018-12-26T18:44:47.654Z,21.10
2018-12-26T18:47:15.707Z,20.80
2018-12-26T18:49:43.758Z,22.60
2018-12-26T18:52:15.509Z,21.77
2018-12-26T18:54:43.514Z,22.00
2018-12-26T18:57:11.595Z,21.23
2018-12-26T18:59:39.663Z,20.92
2018-12-26T19:02:07.717Z,21.57
2018-12-26T19:04:36.231Z,21.40
2018-12-26T19:07:04.332Z,21.48
2018-12-26T19:09:32.459Z,21.23
2018-12-26T19:12:00.528Z,22.62
2018-12-26T19:14:28.591Z,20.65
2018-12-26T19:16:56.679Z,20.92
2018-12-26T19:19:24.761Z,20.48
2018-12-26T19:21:52.853Z,19.37
2018-12-26T19:24:20.919Z,19.12
2018-12-26T19:26:49.152Z,19.65
2018-12-26T19:29:17.856Z,20.25
2018-12-26T19:31:45.935Z,20.68
2018-12-26T19:34:13.994Z,20.40
2018-12-26T19:36:42.055Z,23.47
2018-12-26T19:39:10.134Z,22.05
2018-12-26T19:41:38.189Z,21.85
2018-12-26T19:44:06.242Z,22.13
2018-12-26T19:46:34.375Z,20.88
2018-12-26T19:49:02.426Z,19.98
2018-12-26T19:51:31.920Z,20.85
2018-12-26T19:54:00.170Z,20.20
2018-12-26T19:56:28.263Z,19.60
2018-12-26T19:58:56.323Z,20.05
2018-12-26T20:01:24.375Z,20.72
2018-12-26T20:03:52.427Z,20.05
2018-12-26T20:06:22.161Z,20.32
2018-12-26T20:08:50.279Z,20.95
2018-12-26T20:11:18.339Z,20.25
2018-12-26T20:13:46.398Z,21.20
2018-12-26T20:16:14.455Z,20.68
2018-12-26T20:18:42.516Z,20.88
2018-12-26T20:21:10.601Z,19.80
2018-12-26T20:23:38.654Z,19.57
2018-12-26T20:26:06.719Z,21.00
2018-12-26T20:28:34.874Z,21.33
2018-12-26T20:31:02.922Z,24.15
2018-12-26T20:33:30.974Z,22.48
2018-12-26T20:35:59.076Z,22.25
2018-12-26T20:38:27.130Z,20.72
2018-12-26T20:40:55.244Z,21.62
2018-12-26T20:43:23.315Z,22.25
2018-12-26T20:45:51.382Z,21.20
2018-12-26T20:48:19.482Z,21.12
2018-12-26T20:50:47.541Z,21.27
2018-12-26T20:53:15.603Z,21.42
2018-12-26T20:55:43.670Z,25.75
2018-12-26T20:58:11.747Z,20.32
2018-12-26T21:00:39.807Z,21.48
2018-12-26T21:03:07.882Z,19.27
2018-12-26T21:05:35.930Z,21.33
2018-12-26T21:08:04.047Z,21.33
2018-12-26T21:10:32.083Z,20.37
2018-12-26T21:13:00.139Z,21.70
2018-12-26T21:15:28.194Z,22.45
2018-12-26T21:17:56.274Z,22.62
2018-12-26T21:20:24.334Z,21.50
2018-12-26T21:22:52.414Z,22.25
2018-12-26T21:25:20.460Z,21.45
2018-12-26T21:27:48.514Z,23.65
2018-12-26T21:30:16.572Z,21.45
2018-12-26T21:35:51.879Z,21.68
2018-12-26T21:38:39.282Z,21.10
2018-12-26T23:34:07.434Z,16.32
2018-12-26T23:36:54.834Z,16.55
2018-12-26T23:39:42.240Z,16.25
